Time;durP1;ratioP1;P1;durP2;ratioP2;P2;SDS_P1;SDS_P2;PMS_P1;PMS_P2;Temp;Humidity;BMP_temperature;BMP_pressure;BME280_temperature;BME280_humidity;BME280_pressure;Samples;Min_cycle;Max_cycle;Signal;HPM_P1;HPM_P2
2024/04/07 00:02:14;;;;;;;2.28;0.80;;;;;;;18.80;48.84;100269.31;4916161;29;20115;-87
2024/04/07 00:04:40;;;;;;;1.60;0.60;;;;;;;18.80;49.04;100254.22;4944855;29;20058;-86
2024/04/07 00:07:07;;;;;;;1.67;0.85;;;;;;;18.77;48.90;100251.75;4927576;29;20023;-87
2024/04/07 00:09:39;;;;;;;0.70;0.70;;;;;;;18.75;48.61;100258.06;4925464;29;20032;-87
2024/04/07 00:12:08;;;;;;;2.40;0.90;;;;;;;18.72;48.88;100259.06;4923439;29;20371;-86
2024/04/07 00:14:48;;;;;;;1.63;0.90;;;;;;;18.77;48.81;100251.75;4924990;29;20044;-85
2024/04/07 00:17:15;;;;;;;2.28;0.82;;;;;;;18.71;48.98;100240.56;4938315;28;20056;-85
2024/04/07 00:19:40;;;;;;;2.00;0.82;;;;;;;18.65;49.13;100234.63;4938105;29;20043;-87
2024/04/07 00:22:09;;;;;;;0.85;0.77;;;;;;;18.60;49.10;100235.78;4921013;29;20048;-84
2024/04/07 00:24:35;;;;;;;1.10;0.70;;;;;;;18.55;49.17;100240.47;4939629;29;20756;-85
2024/04/07 00:27:02;;;;;;;0.93;0.90;;;;;;;18.56;48.94;100228.94;4909212;29;20051;-86
2024/04/07 00:29:30;;;;;;;8.95;0.88;;;;;;;18.54;49.14;100236.09;4955607;28;20080;-86
2024/04/07 00:31:58;;;;;;;2.50;0.80;;;;;;;18.56;48.89;100226.28;4944588;29;20047;-86
2024/04/07 00:34:24;;;;;;;0.85;0.85;;;;;;;18.54;48.64;100221.06;4942340;29;20151;-86
2024/04/07 00:36:51;;;;;;;0.70;0.70;;;;;;;18.53;48.87;100214.03;4954062;28;20032;-85
2024/04/07 00:39:17;;;;;;;1.55;0.90;;;;;;;18.52;49.32;100209.66;4937904;29;20115;-86
2024/04/07 00:41:44;;;;;;;0.80;0.80;;;;;;;18.45;49.27;100209.13;4973376;28;20058;-87
2024/04/07 00:44:12;;;;;;;1.75;1.17;;;;;;;18.39;49.52;100203.25;4957779;28;20039;-86
2024/04/07 00:46:42;;;;;;;3.03;1.00;;;;;;;18.39;49.61;100197.97;4952963;29;20038;-86
2024/04/07 00:49:08;;;;;;;3.40;0.85;;;;;;;18.35;49.50;100190.16;4924254;29;20079;-86
2024/04/07 00:51:36;;;;;;;0.95;0.85;;;;;;;18.36;49.50;100193.66;4964701;28;20039;-86
2024/04/07 00:54:02;;;;;;;1.02;0.68;;;;;;;18.24;49.73;100195.13;4934744;29;20040;-86
2024/04/07 00:56:29;;;;;;;1.08;0.80;;;;;;;18.25;49.49;100202.16;4953385;28;20099;-85
2024/04/07 00:58:59;;;;;;;0.73;0.68;;;;;;;18.18;49.70;100192.75;4972732;28;20039;-86
2024/04/07 01:01:25;;;;;;;2.58;1.02;;;;;;;18.18;49.76;100185.66;4926136;29;20039;-86
2024/04/07 01:03:51;;;;;;;2.60;1.10;;;;;;;18.15;50.00;100184.97;4949295;28;20063;-86
2024/04/07 01:06:18;;;;;;;0.93;0.93;;;;;;;18.16;49.98;100189.31;4929807;29;20051;-86
2024/04/07 01:08:46;;;;;;;3.80;0.80;;;;;;;18.14;49.98;100193.84;4913885;29;20079;-85
2024/04/07 01:11:15;;;;;;;0.40;0.40;;;;;;;18.09;50.00;100195.84;4925606;29;20043;-85
2024/04/07 01:13:44;;;;;;;6.32;0.95;;;;;;;18.16;49.65;100190.19;4931227;29;20108;-86
2024/04/07 01:16:13;;;;;;;1.10;0.82;;;;;;;18.22;49.55;100186.38;4957142;28;20032;-87
2024/04/07 01:18:42;;;;;;;2.38;0.63;;;;;;;18.18;49.29;100193.59;4949408;29;20040;-85
2024/04/07 01:21:09;;;;;;;2.38;1.00;;;;;;;18.25;49.39;100196.84;4951614;29;20040;-86
2024/04/07 01:23:34;;;;;;;0.60;0.60;;;;;;;18.21;49.09;100197.91;4934255;29;20052;-85
2024/04/07 01:26:04;;;;;;;0.70;0.70;;;;;;;18.32;48.77;100194.75;4936069;29;20054;-85
2024/04/07 01:28:32;;;;;;;0.52;0.52;;;;;;;18.32;48.75;100206.19;4959614;29;20051;-87
2024/04/07 01:30:59;;;;;;;0.60;0.60;;;;;;;18.36;48.42;100201.63;4955437;28;20046;-86
2024/04/07 01:33:25;;;;;;;2.05;0.75;;;;;;;18.44;48.15;100195.94;4957988;28;20043;-86
2024/04/07 01:35:52;;;;;;;0.60;0.60;;;;;;;18.42;48.22;100201.31;4939151;29;20075;-86
2024/04/07 01:38:26;;;;;;;1.48;0.57;;;;;;;18.44;47.98;100203.88;4927278;29;20051;-85
2024/04/07 01:40:53;;;;;;;1.92;0.60;;;;;;;18.33;48.20;100210.56;4925594;29;20767;-85
2024/04/07 01:43:21;;;;;;;0.57;0.47;;;;;;;18.38;48.16;100210.31;4939070;29;20078;-85
2024/04/07 01:45:48;;;;;;;0.65;0.50;;;;;;;18.31;48.28;100208.94;4931694;29;20505;-86
2024/04/07 01:48:14;;;;;;;1.38;0.80;;;;;;;18.27;48.20;100199.41;4924363;29;20110;-85
2024/04/07 01:50:43;;;;;;;1.55;0.75;;;;;;;18.30;48.26;100196.59;4944468;29;20385;-86
2024/04/07 01:53:09;;;;;;;1.50;0.63;;;;;;;18.28;47.90;100195.84;4916078;29;20044;-85
2024/04/07 01:55:35;;;;;;;1.75;0.75;;;;;;;18.31;48.05;100199.19;4912143;29;20102;-85
2024/04/07 01:58:04;;;;;;;2.72;0.60;;;;;;;18.35;48.02;100198.13;4945353;28;20083;-87
2024/04/07 02:00:33;;;;;;;0.77;0.75;;;;;;;18.29;47.97;100201.06;4958264;28;20043;-86
2024/04/07 02:02:59;;;;;;;0.57;0.57;;;;;;;18.29;48.32;100192.22;4941246;29;20406;-85
2024/04/07 02:05:25;;;;;;;1.92;0.75;;;;;;;18.25;48.34;100199.50;4940510;29;20590;-85
2024/04/07 02:07:51;;;;;;;1.23;0.50;;;;;;;18.31;48.22;100200.97;4963803;28;20740;-88
2024/04/07 02:10:18;;;;;;;1.25;0.68;;;;;;;18.38;47.94;100209.47;4954654;29;20047;-86
2024/04/07 02:12:44;;;;;;;1.98;0.80;;;;;;;18.35;48.07;100202.53;4940600;29;20070;-86
2024/04/07 02:15:14;;;;;;;3.13;0.77;;;;;;;18.31;48.29;100204.47;4950211;28;20027;-86
2024/04/07 02:17:40;;;;;;;2.53;0.80;;;;;;;18.26;48.44;100216.22;4923209;29;20035;-86
2024/04/07 02:20:09;;;;;;;1.55;0.45;;;;;;;18.21;48.11;100210.28;4943108;29;20070;-86
2024/04/07 02:22:34;;;;;;;0.75;0.65;;;;;;;18.21;48.43;100210.28;4972921;28;20052;-85
2024/04/07 02:25:01;;;;;;;1.63;0.90;;;;;;;18.20;48.72;100209.44;4934338;29;20083;-86
2024/04/07 02:27:27;;;;;;;0.70;0.70;;;;;;;18.12;48.66;100204.53;4939170;29;20455;-85
2024/04/07 02:29:54;;;;;;;0.63;0.63;;;;;;;18.08;48.76;100213.53;4924205;29;20580;-86
2024/04/07 02:32:21;;;;;;;2.50;0.70;;;;;;;18.09;48.80;100214.41;4936568;29;20043;-86
2024/04/07 02:34:48;;;;;;;1.60;0.90;;;;;;;18.01;49.35;100207.66;4968630;28;20487;-85
2024/04/07 02:37:14;;;;;;;2.38;1.30;;;;;;;17.99;49.05;100208.66;4967941;28;20046;-85
2024/04/07 02:39:43;;;;;;;2.25;0.75;;;;;;;17.97;49.10;100210.53;4938017;29;20151;-85
2024/04/07 02:42:12;;;;;;;0.70;0.70;;;;;;;18.02;48.78;100205.88;4952115;29;20357;-85
2024/04/07 02:50:07;;;;;;;0.80;0.80;;;;;;;18.14;48.36;100215.03;4925793;29;20035;-85
2024/04/07 02:52:34;;;;;;;1.00;0.85;;;;;;;18.24;47.85;100210.13;4923850;29;20057;-86
2024/04/07 02:55:01;;;;;;;0.73;0.73;;;;;;;18.25;47.97;100214.50;4948261;28;20455;-86
2024/04/07 02:57:27;;;;;;;1.33;0.50;;;;;;;18.45;47.28;100214.41;4930961;29;20051;-86
2024/04/07 02:59:54;;;;;;;1.13;1.00;;;;;;;18.46;47.55;100220.56;4933300;29;20083;-86
2024/04/07 03:02:21;;;;;;;1.08;0.60;;;;;;;18.51;47.11;100229.16;4938975;29;20055;-87
2024/04/07 03:04:50;;;;;;;0.82;0.32;;;;;;;18.52;47.33;100230.88;4922610;29;20114;-86
2024/04/07 03:07:19;;;;;;;0.55;0.50;;;;;;;18.56;47.09;100236.88;4926451;29;20563;-84
2024/04/07 03:09:46;;;;;;;0.60;0.60;;;;;;;18.65;46.84;100241.72;4921541;29;20071;-86
2024/04/07 03:12:12;;;;;;;2.08;0.50;;;;;;;18.65;46.72;100249.69;4935652;29;20051;-85
2024/04/07 03:14:40;;;;;;;0.95;0.52;;;;;;;18.64;46.64;100250.63;4951914;29;20047;-86
2024/04/07 03:17:08;;;;;;;0.60;0.50;;;;;;;18.70;46.63;100265.38;4930960;29;20046;-85
2024/04/07 03:19:38;;;;;;;1.65;0.93;;;;;;;18.76;46.43;100263.28;4962044;28;20047;-84
2024/04/07 03:22:03;;;;;;;0.77;0.50;;;;;;;18.88;45.93;100266.22;4945495;29;20078;-83
2024/04/07 03:24:32;;;;;;;1.27;0.55;;;;;;;18.97;45.77;100263.19;4912532;29;20119;-86
2024/04/07 03:26:58;;;;;;;1.20;0.70;;;;;;;18.96;45.93;100259.66;4958266;28;20052;-85
2024/04/07 03:29:25;;;;;;;2.05;0.57;;;;;;;19.00;45.73;100250.59;4944392;28;20376;-88
2024/04/07 03:31:54;;;;;;;1.85;0.90;;;;;;;19.04;45.79;100259.28;4954695;28;20495;-86
2024/04/07 03:34:24;;;;;;;1.30;0.80;;;;;;;19.04;45.89;100267.22;4949044;29;20048;-86
2024/04/07 03:36:51;;;;;;;0.50;0.50;;;;;;;19.07;45.52;100258.25;4928819;29;20574;-87
2024/04/07 03:39:20;;;;;;;1.92;0.95;;;;;;;19.09;45.58;100265.19;4947051;29;20052;-86
2024/04/07 03:41:47;;;;;;;1.38;0.50;;;;;;;19.21;45.07;100268.19;4942707;29;20058;-86
2024/04/07 03:44:14;;;;;;;0.75;0.75;;;;;;;19.25;44.98;100265.25;4943508;28;20151;-86
2024/04/07 03:46:42;;;;;;;3.30;0.65;;;;;;;19.26;45.00;100266.16;4926579;29;20115;-85
2024/04/07 03:49:13;;;;;;;4.57;0.88;;;;;;;19.23;44.79;100275.13;4953296;28;20127;-86
2024/04/07 03:51:39;;;;;;;1.40;0.50;;;;;;;19.30;44.81;100278.31;4929304;29;20051;-86
2024/04/07 03:54:06;;;;;;;4.55;1.52;;;;;;;19.31;44.90;100288.84;4928230;29;20051;-85
2024/04/07 03:56:32;;;;;;;2.33;0.60;;;;;;;19.44;44.18;100299.69;4934651;29;20050;-85
2024/04/07 03:59:01;;;;;;;0.85;0.75;;;;;;;19.42;44.30;100306.00;4953441;28;20036;-86
2024/04/07 04:01:28;;;;;;;0.50;0.50;;;;;;;19.44;44.31;100310.31;4937452;28;20150;-85
2024/04/07 04:03:54;;;;;;;1.52;0.82;;;;;;;19.42;44.40;100328.09;4933041;28;20048;-85
2024/04/07 04:06:21;;;;;;;1.48;0.90;;;;;;;19.41;44.50;100314.91;4952034;28;20475;-85
2024/04/07 04:08:47;;;;;;;1.33;1.23;;;;;;;19.39;44.77;100338.03;4936483;29;20046;-84
2024/04/07 04:11:16;;;;;;;1.52;0.80;;;;;;;19.28;45.19;100342.09;4925808;29;20111;-85
2024/04/07 04:13:45;;;;;;;1.02;0.55;;;;;;;19.19;45.62;100342.56;4933368;29;20387;-85
2024/04/07 04:16:12;;;;;;;2.10;0.80;;;;;;;19.10;45.67;100357.13;4928985;29;20070;-85
2024/04/07 04:18:38;;;;;;;1.83;0.70;;;;;;;19.00;45.82;100359.34;4938681;29;20074;-85
2024/04/07 04:21:08;;;;;;;1.60;0.80;;;;;;;18.96;46.08;100365.75;4923845;29;20067;-85
2024/04/07 04:23:34;;;;;;;3.53;0.88;;;;;;;18.92;45.94;100373.94;4932988;29;20052;-85
2024/04/07 04:26:01;;;;;;;3.20;0.80;;;;;;;18.89;46.11;100382.91;4903968;29;20098;-86
2024/04/07 04:28:26;;;;;;;0.65;0.63;;;;;;;18.89;45.75;100377.59;4918839;29;20051;-85
2024/04/07 04:31:00;;;;;;;1.55;0.60;;;;;;;18.93;45.72;100383.59;4958331;29;20127;-85
2024/04/07 04:33:26;;;;;;;;;;;;;;;18.92;45.52;100385.41;4943066;29;20114;-86
2024/04/07 04:35:53;;;;;;;2.05;1.05;;;;;;;18.94;45.72;100388.84;4943261;28;20006;-86
2024/04/07 04:38:22;;;;;;;1.70;0.50;;;;;;;18.97;45.61;100387.84;4924639;29;20082;-85
2024/04/07 04:40:58;;;;;;;1.50;0.68;;;;;;;18.93;45.60;100395.09;4927844;28;20066;-84
2024/04/07 04:43:24;;;;;;;1.02;0.68;;;;;;;18.94;45.69;100406.53;4937421;29;20039;-86
2024/04/07 04:46:09;;;;;;;0.95;0.80;;;;;;;19.02;45.29;100412.38;4961002;28;20090;-86
2024/04/07 04:48:48;;;;;;;1.70;0.65;;;;;;;19.09;45.17;100402.31;4955009;29;20055;-84
2024/04/07 04:51:17;;;;;;;5.38;1.23;;;;;;;19.15;44.81;100409.94;4955429;29;20048;-85
2024/04/07 04:53:46;;;;;;;4.00;0.80;;;;;;;19.38;44.19;100413.28;4954380;29;20072;-86
2024/04/07 04:56:15;;;;;;;3.42;0.93;;;;;;;19.49;43.90;100438.34;4936093;29;20055;-85
2024/04/07 04:58:45;;;;;;;4.82;0.82;;;;;;;19.59;43.67;100454.66;4947317;28;20103;-84
2024/04/07 05:01:12;;;;;;;5.10;1.45;;;;;;;19.66;43.93;100460.56;4952531;28;20063;-85
2024/04/07 05:03:39;;;;;;;5.47;1.40;;;;;;;19.63;44.02;100466.88;4946792;29;20035;-84
2024/04/07 05:06:10;;;;;;;5.15;0.68;;;;;;;19.59;44.11;100480.38;4942785;28;20055;-84
2024/04/07 05:08:36;;;;;;;3.78;1.10;;;;;;;19.49;44.71;100490.59;4919186;29;20444;-84
2024/04/07 05:11:03;;;;;;;3.75;0.95;;;;;;;19.44;45.29;100495.28;4952399;28;20880;-84
2024/04/07 05:13:31;;;;;;;5.38;1.20;;;;;;;19.39;46.12;100498.13;4930082;29;20055;-85
2024/04/07 05:15:56;;;;;;;3.13;1.15;;;;;;;19.40;46.10;100506.94;4937245;29;20543;-86
2024/04/07 05:18:24;;;;;;;3.70;1.77;;;;;;;19.36;46.76;100513.34;4938552;29;20122;-85
2024/04/07 05:20:50;;;;;;;4.13;0.98;;;;;;;19.30;46.90;100535.75;4937462;29;20381;-85
2024/04/07 05:23:16;;;;;;;3.25;0.95;;;;;;;19.19;47.46;100530.94;4924771;29;20055;-84
2024/04/07 05:25:43;;;;;;;6.40;1.05;;;;;;;19.11;47.95;100549.00;4946085;29;20107;-87
2024/04/07 05:28:11;;;;;;;4.57;2.05;;;;;;;19.01;48.52;100575.97;4911887;29;20502;-86
2024/04/07 05:30:37;;;;;;;4.13;1.10;;;;;;;18.92;48.72;100578.19;4948509;28;20163;-85
2024/04/07 05:33:04;;;;;;;4.90;1.23;;;;;;;18.82;49.54;100577.69;4931386;29;20070;-86
2024/04/07 05:35:33;;;;;;;2.10;1.10;;;;;;;18.71;49.99;100580.81;4945594;29;20055;-86
2024/04/07 05:38:00;;;;;;;3.13;1.15;;;;;;;18.61;51.26;100583.00;4948816;29;20058;-85
2024/04/07 05:40:27;;;;;;;4.03;1.20;;;;;;;18.51;52.26;100579.91;4926688;29;20069;-86
2024/04/07 05:42:55;;;;;;;7.15;1.40;;;;;;;18.40;52.99;100563.59;4945666;29;20048;-86
2024/04/07 05:45:21;;;;;;;8.13;1.65;;;;;;;18.29;54.28;100592.34;4958840;28;20131;-85
2024/04/07 05:47:53;;;;;;;4.22;1.20;;;;;;;18.29;55.39;100595.88;4912250;29;20063;-85
2024/04/07 05:50:20;;;;;;;1.83;1.40;;;;;;;18.21;56.30;100615.66;4929287;29;20039;-85
2024/04/07 05:52:46;;;;;;;5.88;1.35;;;;;;;18.18;56.08;100614.00;4944073;29;20129;-85
2024/04/07 05:55:12;;;;;;;3.65;2.17;;;;;;;18.13;56.89;100611.53;4944584;28;20245;-83
2024/04/07 05:57:42;;;;;;;4.03;1.20;;;;;;;18.08;57.58;100613.53;4913610;29;20066;-85
2024/04/07 06:00:09;;;;;;;10.07;1.67;;;;;;;18.11;57.25;100634.56;4911554;29;20511;-85
2024/04/07 06:02:36;;;;;;;3.40;1.23;;;;;;;18.09;57.65;100639.06;4925769;29;20059;-85
2024/04/07 06:05:02;;;;;;;3.67;1.40;;;;;;;18.07;57.94;100648.88;4926493;29;20047;-85
2024/04/07 06:07:50;;;;;;;2.47;0.95;;;;;;;18.12;58.34;100638.06;4943250;29;20048;-85
2024/04/07 06:10:17;;;;;;;8.75;2.00;;;;;;;18.08;58.85;100629.41;4945754;29;20049;-87
2024/04/07 06:12:44;;;;;;;2.80;1.02;;;;;;;18.11;58.29;100639.88;4927445;29;20476;-85
2024/04/07 06:15:10;;;;;;;7.95;2.03;;;;;;;18.10;59.01;100650.53;4944600;28;20047;-86
2024/04/07 06:17:37;;;;;;;7.93;1.40;;;;;;;18.11;59.11;100682.25;4926027;29;20051;-86
2024/04/07 06:20:04;;;;;;;2.63;1.15;;;;;;;18.06;59.17;100707.22;4957729;28;20118;-85
2024/04/07 06:22:31;;;;;;;2.75;1.60;;;;;;;18.13;58.88;100724.59;4906773;29;20160;-85
2024/04/07 06:24:57;;;;;;;4.85;1.20;;;;;;;18.18;59.17;100717.31;4925041;29;20504;-84
2024/04/07 06:27:24;;;;;;;2.30;1.23;;;;;;;18.04;59.76;100709.06;4927083;29;20221;-85
2024/04/07 06:29:58;;;;;;;6.75;1.42;;;;;;;18.17;59.25;100716.47;4954633;28;20050;-87
2024/04/07 06:32:27;;;;;;;6.63;1.23;;;;;;;18.28;58.80;100710.72;4941433;29;20072;-85
2024/04/07 06:34:53;;;;;;;10.10;1.30;;;;;;;18.25;59.19;100707.31;4918592;29;20161;-85
2024/04/07 06:37:20;;;;;;;5.70;1.58;;;;;;;18.14;59.59;100707.78;4928781;29;20047;-87
2024/04/07 06:39:45;;;;;;;5.25;1.30;;;;;;;18.29;59.36;100704.50;4949486;29;20114;-86
2024/04/07 06:42:14;;;;;;;6.30;1.88;;;;;;;18.30;58.95;100695.63;4945006;29;20074;-85
2024/04/07 06:44:40;;;;;;;4.43;1.40;;;;;;;18.35;58.97;100717.53;4947356;29;20056;-87
2024/04/07 06:47:08;;;;;;;3.83;1.20;;;;;;;18.50;59.03;100726.63;4910181;29;20059;-86
2024/04/07 06:49:34;;;;;;;6.72;1.52;;;;;;;18.77;57.96;100726.41;4955227;28;20084;-87
2024/04/07 06:52:01;;;;;;;3.38;1.73;;;;;;;19.20;57.08;100739.63;4934636;29;20618;-86
2024/04/07 06:54:26;;;;;;;2.60;1.10;;;;;;;19.34;56.37;100726.63;4923134;29;20051;-86
2024/04/07 06:56:53;;;;;;;3.17;0.95;;;;;;;19.71;55.65;100716.16;4941465;29;20509;-86
2024/04/07 06:59:22;;;;;;;3.17;1.10;;;;;;;19.51;55.99;100719.69;4945486;29;20048;-93
2024/04/07 07:01:49;;;;;;;3.42;1.38;;;;;;;19.86;55.13;100716.41;4969857;28;20067;-90
2024/04/07 07:04:34;;;;;;;4.30;1.30;;;;;;;20.38;53.89;100715.69;5018222;23;20037;-88
2024/04/07 07:07:02;;;;;;;4.82;1.02;;;;;;;20.06;54.44;100728.72;5008310;28;20034;-88
2024/04/07 07:09:28;;;;;;;4.43;1.00;;;;;;;19.69;55.55;100731.28;4991362;28;20109;-90
2024/04/07 07:14:51;;;;;;;4.57;1.30;;;;;;;19.03;57.13;100740.38;5009264;28;20061;-87
2024/04/07 07:17:18;;;;;;;4.57;1.05;;;;;;;18.65;57.70;100753.44;5012171;28;20043;-90
2024/04/07 07:20:12;;;;;;;1.48;0.70;;;;;;;18.50;58.39;100754.94;5015441;28;20030;-90
2024/04/07 07:22:41;;;;;;;2.35;0.73;;;;;;;18.48;58.10;100749.66;5170432;23;20300;-91
2024/04/07 07:25:09;;;;;;;4.15;1.02;;;;;;;18.42;58.11;100746.41;4961749;28;20572;-87
2024/04/07 07:27:48;;;;;;;2.45;0.80;;;;;;;18.45;58.17;100743.66;4962744;28;20035;-89
2024/04/07 07:30:18;;;;;;;2.25;1.25;;;;;;;18.73;56.97;100739.84;4963882;28;20098;-88
2024/04/07 07:32:51;;;;;;;2.00;0.77;;;;;;;18.68;56.73;100748.88;4957623;28;20035;-87
2024/04/07 07:35:19;;;;;;;1.90;0.80;;;;;;;18.75;56.14;100748.63;5036255;23;20088;-89
2024/04/07 07:37:49;;;;;;;3.17;1.00;;;;;;;19.20;54.68;100736.97;5004688;28;20133;-89
2024/04/07 07:40:20;;;;;;;0.63;0.50;;;;;;;19.27;54.33;100749.06;5001627;28;20053;-89
2024/04/07 07:42:47;;;;;;;4.65;0.77;;;;;;;20.26;51.98;100749.03;5007433;28;20056;-88
2024/04/07 07:45:21;;;;;;;1.77;0.47;;;;;;;20.57;50.83;100751.06;5004233;28;20056;-89
2024/04/07 07:47:49;;;;;;;1.88;0.70;;;;;;;20.36;50.93;100738.81;4984092;28;20068;-86
2024/04/07 07:50:33;;;;;;;1.58;1.05;;;;;;;20.66;49.73;100725.81;5016085;28;20041;-89
2024/04/07 07:53:06;;;;;;;4.93;0.52;;;;;;;21.03;49.22;100694.69;5013065;28;20064;-90
2024/04/07 07:55:44;;;;;;;1.50;0.35;;;;;;;21.01;48.77;100698.38;4998281;28;20051;-88
2024/04/07 07:58:15;;;;;;;2.67;0.85;;;;;;;21.53;47.56;100703.59;5008213;28;20057;-88
2024/04/07 08:00:47;;;;;;;5.13;0.63;;;;;;;21.24;48.04;100713.16;5010660;28;20042;-87
2024/04/07 08:03:32;;;;;;;0.88;0.63;;;;;;;21.07;48.88;100712.22;5017879;23;20050;-87
2024/04/07 08:06:39;;;;;;;0.93;0.85;;;;;;;21.11;47.90;100712.94;5041727;23;20101;31
2024/04/07 08:09:06;;;;;;;1.50;1.13;;;;;;;21.31;47.17;100720.75;4943343;28;20046;-85
2024/04/07 08:11:35;;;;;;;1.23;0.60;;;;;;;21.57;47.17;100745.13;4976740;28;20034;-84
2024/04/07 08:14:03;;;;;;;1.35;0.40;;;;;;;21.13;48.18;100742.97;4982657;28;20050;-85
2024/04/07 08:16:29;;;;;;;1.30;0.68;;;;;;;20.77;49.04;100735.97;4946584;28;20070;-85
2024/04/07 08:18:56;;;;;;;3.88;0.50;;;;;;;20.54;49.49;100739.72;4974252;28;20050;-84
2024/04/07 08:21:23;;;;;;;0.43;0.40;;;;;;;20.39;49.99;100749.28;4942680;28;20039;-85
2024/04/07 08:23:49;;;;;;;0.75;0.40;;;;;;;20.16;49.98;100756.59;4967577;28;20084;-84
2024/04/07 08:26:16;;;;;;;2.25;0.47;;;;;;;19.96;50.60;100765.50;4976755;28;20047;-84
2024/04/07 08:28:44;;;;;;;2.83;0.40;;;;;;;19.81;51.13;100778.53;4977588;28;20042;-85
2024/04/07 08:31:13;;;;;;;1.85;0.43;;;;;;;19.71;51.96;100771.91;4960536;28;20047;-87
2024/04/07 08:33:39;;;;;;;1.85;0.30;;;;;;;19.78;51.80;100777.81;4995032;28;20147;-85
2024/04/07 08:36:09;;;;;;;3.20;0.60;;;;;;;19.89;51.67;100793.28;4960974;28;20123;-83
2024/04/07 08:38:34;;;;;;;3.72;0.60;;;;;;;19.85;51.91;100783.72;4959156;28;20097;-86
2024/04/07 08:41:03;;;;;;;3.25;0.73;;;;;;;19.70;52.41;100772.84;4974736;28;20645;-85
2024/04/07 08:43:42;;;;;;;3.17;0.70;;;;;;;19.67;52.50;100779.16;4966744;28;20347;-85
2024/04/07 08:46:20;;;;;;;10.95;0.88;;;;;;;19.57;52.98;100788.47;4976339;28;20130;-86
2024/04/07 08:48:57;;;;;;;1.30;0.40;;;;;;;19.59;52.94;100786.59;4962390;28;20043;-86
2024/04/07 08:51:24;;;;;;;1.85;0.50;;;;;;;19.57;53.06;100777.84;4989891;28;20050;-86
2024/04/07 08:53:51;;;;;;;5.38;0.55;;;;;;;19.55;53.24;100782.34;4997542;28;20053;-85
2024/04/07 08:56:22;;;;;;;3.53;0.52;;;;;;;19.61;53.38;100770.59;4973333;28;20095;-85
2024/04/07 08:59:00;;;;;;;0.95;0.40;;;;;;;19.66;51.06;100771.25;4983478;28;20031;-88
2024/04/07 09:01:31;;;;;;;2.17;0.43;;;;;;;19.61;51.32;100771.47;4984130;28;20565;-87
2024/04/07 09:04:02;;;;;;;1.45;0.60;;;;;;;19.54;51.04;100767.34;4986503;28;20081;-85
2024/04/07 09:06:29;;;;;;;2.20;0.30;;;;;;;19.59;50.88;100777.78;4980954;28;20053;-84
2024/04/07 09:09:00;;;;;;;1.15;0.85;;;;;;;19.49;51.84;100786.16;4992871;28;20132;-86
2024/04/07 09:11:27;;;;;;;1.75;0.30;;;;;;;19.60;51.21;100798.09;4976069;28;20042;-86
2024/04/07 09:13:55;;;;;;;2.72;0.50;;;;;;;19.57;51.40;100804.41;4997082;28;20051;-85
2024/04/07 09:16:22;;;;;;;1.55;0.40;;;;;;;19.67;51.40;100803.06;4947508;28;20089;-85
2024/04/07 09:18:49;;;;;;;3.05;0.80;;;;;;;19.61;51.35;100800.66;4963706;28;20046;-85
2024/04/07 09:21:23;;;;;;;1.83;0.57;;;;;;;19.91;50.88;100794.09;4993212;28;20035;-85
2024/04/07 09:23:53;;;;;;;2.20;0.88;;;;;;;20.40;50.02;100783.81;4990903;28;20532;-84
2024/04/07 09:26:25;;;;;;;1.67;0.50;;;;;;;20.82;48.70;100781.81;4975893;28;20474;-85
2024/04/07 09:28:54;;;;;;;5.43;0.77;;;;;;;21.48;47.98;100786.41;4992547;28;20054;-85
2024/04/07 09:31:21;;;;;;;2.20;0.75;;;;;;;23.08;44.47;100788.28;4982150;28;20027;-84
2024/04/07 09:33:47;;;;;;;2.45;0.50;;;;;;;23.57;43.55;100790.69;4985106;28;20065;-84
2024/04/07 09:36:27;;;;;;;2.85;1.30;;;;;;;24.06;42.08;100791.28;4970086;28;20045;-86
2024/04/07 09:38:53;;;;;;;1.63;1.52;;;;;;;22.85;44.13;100773.63;4978504;28;20058;-88
2024/04/07 09:41:23;;;;;;;3.15;1.17;;;;;;;22.36;45.36;100777.31;4987338;28;20503;-84
2024/04/07 09:43:53;;;;;;;4.07;1.10;;;;;;;23.37;43.44;100769.69;4994401;28;20042;-86
2024/04/07 09:46:23;;;;;;;1.17;0.90;;;;;;;23.43;43.47;100775.50;4976697;28;20137;-83
2024/04/07 09:49:02;;;;;;;1.45;1.13;;;;;;;23.31;43.54;100781.59;4965586;28;20055;-82
2024/04/07 09:51:31;;;;;;;2.13;1.08;;;;;;;22.76;44.86;100786.56;5130511;23;20055;-84
2024/04/07 09:54:03;;;;;;;4.45;1.40;;;;;;;23.31;43.93;100784.28;4971855;28;20042;-84
2024/04/07 09:56:33;;;;;;;3.30;1.10;;;;;;;24.02;42.45;100787.09;4958892;28;20047;-86
2024/04/07 09:59:04;;;;;;;1.73;0.95;;;;;;;23.42;43.18;100788.97;4961650;28;20059;-84
2024/04/07 10:01:31;;;;;;;3.50;1.10;;;;;;;22.75;44.07;100794.63;4959691;28;20102;-85
2024/04/07 10:04:09;;;;;;;1.52;1.35;;;;;;;22.69;44.78;100801.19;4954510;28;20060;-84
2024/04/07 10:06:35;;;;;;;1.65;1.00;;;;;;;22.30;45.42;100803.34;4956567;28;20055;-85
2024/04/07 10:09:05;;;;;;;4.68;1.17;;;;;;;22.07;45.22;100809.09;4938413;28;20055;-85
2024/04/07 10:11:31;;;;;;;1.10;0.93;;;;;;;22.01;45.74;100806.78;4972676;28;20714;-85
2024/04/07 10:13:57;;;;;;;1.65;1.15;;;;;;;22.12;45.56;100799.91;4956784;28;20046;-86
2024/04/07 10:16:25;;;;;;;1.20;0.73;;;;;;;21.81;45.99;100792.69;4956340;28;20216;-87
2024/04/07 10:18:51;;;;;;;1.75;1.00;;;;;;;21.70;46.62;100809.28;4943182;28;20066;-85
2024/04/07 10:21:17;;;;;;;2.15;1.48;;;;;;;21.57;47.07;100817.03;4958306;28;20046;-86
2024/04/07 10:23:43;;;;;;;2.22;1.00;;;;;;;21.54;47.33;100811.91;4944945;28;20042;-84
2024/04/07 10:26:15;;;;;;;2.05;1.05;;;;;;;21.83;46.74;100801.47;4956341;28;20057;-84
2024/04/07 10:28:53;;;;;;;1.50;0.90;;;;;;;21.86;46.57;100800.47;4946469;28;20497;-85
2024/04/07 10:31:34;;;;;;;2.85;1.00;;;;;;;22.50;45.35;100800.53;4957127;28;21443;-85
2024/04/07 10:34:00;;;;;;;2.25;1.13;;;;;;;22.07;45.98;100793.97;4954056;28;20086;-86
2024/04/07 10:36:30;;;;;;;2.78;1.45;;;;;;;21.86;46.44;100784.47;4958611;28;20508;-84
2024/04/07 10:38:59;;;;;;;6.65;1.05;;;;;;;21.81;46.20;100788.25;4956097;28;20051;-83
2024/04/07 10:41:33;;;;;;;1.10;0.50;;;;;;;21.96;46.11;100791.88;4960845;28;20039;-84
2024/04/07 10:44:01;;;;;;;2.17;0.90;;;;;;;23.41;43.39;100788.13;4959914;28;20055;-85
2024/04/07 10:46:31;;;;;;;2.55;1.27;;;;;;;24.78;40.72;100772.34;4943967;28;20050;-84
2024/04/07 10:49:03;;;;;;;1.60;0.57;;;;;;;26.11;39.07;100768.56;4960279;28;20077;-85
2024/04/07 10:51:31;;;;;;;2.97;0.95;;;;;;;27.20;36.52;100775.66;4957976;28;20043;-85
2024/04/07 10:54:10;;;;;;;2.08;1.00;;;;;;;27.16;36.57;100770.66;4957764;28;20057;-84
2024/04/07 10:56:39;;;;;;;3.90;1.05;;;;;;;26.93;36.90;100764.38;4945945;28;20043;-84
2024/04/07 10:59:08;;;;;;;2.28;0.50;;;;;;;27.21;36.50;100763.09;4960634;28;20078;-86
2024/04/07 11:01:34;;;;;;;2.17;0.65;;;;;;;27.45;35.59;100768.41;4959582;28;20122;-85
2024/04/07 11:04:01;;;;;;;3.28;0.70;;;;;;;27.45;34.64;100759.50;4959403;28;20074;-84
2024/04/07 11:06:28;;;;;;;0.52;0.40;;;;;;;26.97;34.51;100760.47;4947909;28;20051;-84
2024/04/07 11:08:54;;;;;;;0.88;0.50;;;;;;;26.29;35.50;100770.88;4962069;28;20057;-84
2024/04/07 11:14:09;;;;;;;1.75;0.43;;;;;;;26.23;34.60;100783.78;4974050;28;20569;-85
2024/04/07 11:16:36;;;;;;;1.30;0.40;;;;;;;25.59;35.24;100773.13;4955573;28;20077;-83
2024/04/07 11:19:17;;;;;;;3.40;0.70;;;;;;;25.59;35.68;100775.81;4945456;28;20070;-85
2024/04/07 11:21:47;;;;;;;1.60;0.68;;;;;;;25.82;35.63;100792.09;4943619;28;20165;-87
2024/04/07 11:26:55;;;;;;;1.90;1.10;;;;;;;25.90;35.47;100785.22;4958433;28;20051;-86
2024/04/07 11:29:21;;;;;;;1.40;0.70;;;;;;;25.73;35.68;100785.56;4943223;28;20074;-86
2024/04/07 11:32:01;;;;;;;1.75;0.50;;;;;;;26.52;34.78;100779.94;4952803;28;20039;-84
2024/04/07 11:34:31;;;;;;;2.42;0.52;;;;;;;26.41;34.38;100780.69;4961137;28;20676;-85
2024/04/07 11:36:59;;;;;;;2.50;0.65;;;;;;;26.81;33.92;100776.91;4965234;28;20043;-85
2024/04/07 11:39:25;;;;;;;1.67;0.40;;;;;;;26.97;33.83;100771.22;4977607;28;20738;-84
2024/04/07 11:42:05;;;;;;;0.85;0.38;;;;;;;27.26;33.00;100770.78;4961265;28;20608;-85
2024/04/07 11:44:34;;;;;;;1.60;0.55;;;;;;;27.31;33.21;100772.16;4973692;28;20059;-84
2024/04/07 11:47:02;;;;;;;0.85;0.30;;;;;;;27.66;32.12;100773.91;4946986;28;20059;-84